sensor_id;sensor_type;location;lat;lon;timestamp;P1;durP1;ratioP1;P2;durP2;ratioP2
3503;SDS011;1766;53.490;10.174;2024-03-02T00:00:27;34.67;;;18.73;;
3503;SDS011;1766;53.490;10.174;2024-03-02T00:02:29;36.07;;;19.30;;
3503;SDS011;1766;53.490;10.174;2024-03-02T00:04:31;38.00;;;19.33;;
3503;SDS011;1766;53.490;10.174;2024-03-02T00:06:33;34.80;;;18.80;;
3503;SDS011;1766;53.490;10.174;2024-03-02T00:08:35;32.20;;;18.73;;
3503;SDS011;1766;53.490;10.174;2024-03-02T00:10:38;36.30;;;19.00;;
3503;SDS011;1766;53.490;10.174;2024-03-02T00:12:40;33.60;;;18.47;;
3503;SDS011;1766;53.490;10.174;2024-03-02T00:14:42;36.83;;;18.70;;
3503;SDS011;1766;53.490;10.174;2024-03-02T00:16:44;40.20;;;18.97;;
3503;SDS011;1766;53.490;10.174;2024-03-02T00:18:46;36.03;;;19.30;;
3503;SDS011;1766;53.490;10.174;2024-03-02T00:20:48;34.43;;;19.80;;
3503;SDS011;1766;53.490;10.174;2024-03-02T00:23:01;35.63;;;19.33;;
3503;SDS011;1766;53.490;10.174;2024-03-02T00:25:05;32.57;;;18.93;;
3503;SDS011;1766;53.490;10.174;2024-03-02T00:27:10;34.43;;;18.93;;
3503;SDS011;1766;53.490;10.174;2024-03-02T00:29:15;35.67;;;18.83;;
3503;SDS011;1766;53.490;10.174;2024-03-02T00:31:19;35.60;;;19.10;;
3503;SDS011;1766;53.490;10.174;2024-03-02T00:33:23;33.77;;;19.17;;
3503;SDS011;1766;53.490;10.174;2024-03-02T00:35:28;37.70;;;19.33;;
3503;SDS011;1766;53.490;10.174;2024-03-02T00:37:30;38.50;;;19.30;;
3503;SDS011;1766;53.490;10.174;2024-03-02T00:39:32;35.27;;;19.17;;
3503;SDS011;1766;53.490;10.174;2024-03-02T00:41:34;34.73;;;18.13;;
3503;SDS011;1766;53.490;10.174;2024-03-02T00:43:42;37.53;;;19.23;;
3503;SDS011;1766;53.490;10.174;2024-03-02T00:45:46;36.30;;;20.60;;
3503;SDS011;1766;53.490;10.174;2024-03-02T00:47:47;37.90;;;20.23;;
3503;SDS011;1766;53.490;10.174;2024-03-02T00:49:51;35.87;;;19.50;;
3503;SDS011;1766;53.490;10.174;2024-03-02T00:51:53;36.23;;;19.77;;
3503;SDS011;1766;53.490;10.174;2024-03-02T00:53:57;38.60;;;20.43;;
3503;SDS011;1766;53.490;10.174;2024-03-02T00:56:01;34.43;;;18.77;;
3503;SDS011;1766;53.490;10.174;2024-03-02T00:58:02;37.33;;;20.03;;
3503;SDS011;1766;53.490;10.174;2024-03-02T01:00:05;39.27;;;21.00;;
3503;SDS011;1766;53.490;10.174;2024-03-02T01:02:12;41.87;;;20.73;;
3503;SDS011;1766;53.490;10.174;2024-03-02T01:04:13;36.93;;;19.23;;
3503;SDS011;1766;53.490;10.174;2024-03-02T01:06:17;36.80;;;19.90;;
3503;SDS011;1766;53.490;10.174;2024-03-02T01:08:19;36.93;;;19.50;;
3503;SDS011;1766;53.490;10.174;2024-03-02T01:10:21;39.03;;;20.13;;
3503;SDS011;1766;53.490;10.174;2024-03-02T01:12:23;39.63;;;20.40;;
3503;SDS011;1766;53.490;10.174;2024-03-02T01:14:24;39.03;;;20.93;;
3503;SDS011;1766;53.490;10.174;2024-03-02T01:16:26;35.83;;;19.67;;
3503;SDS011;1766;53.490;10.174;2024-03-02T01:18:28;40.73;;;20.67;;
3503;SDS011;1766;53.490;10.174;2024-03-02T01:20:30;37.40;;;19.80;;
3503;SDS011;1766;53.490;10.174;2024-03-02T01:22:33;37.03;;;20.83;;
3503;SDS011;1766;53.490;10.174;2024-03-02T01:24:35;37.63;;;20.07;;
3503;SDS011;1766;53.490;10.174;2024-03-02T01:26:37;36.43;;;20.67;;
3503;SDS011;1766;53.490;10.174;2024-03-02T01:28:39;39.67;;;21.13;;
3503;SDS011;1766;53.490;10.174;2024-03-02T01:30:41;40.30;;;20.13;;
3503;SDS011;1766;53.490;10.174;2024-03-02T01:32:43;43.20;;;21.60;;
3503;SDS011;1766;53.490;10.174;2024-03-02T01:34:44;41.87;;;22.47;;
3503;SDS011;1766;53.490;10.174;2024-03-02T01:36:46;37.50;;;21.10;;
3503;SDS011;1766;53.490;10.174;2024-03-02T01:38:49;44.80;;;22.50;;
3503;SDS011;1766;53.490;10.174;2024-03-02T01:40:51;35.53;;;19.97;;
3503;SDS011;1766;53.490;10.174;2024-03-02T01:42:52;40.53;;;20.57;;
3503;SDS011;1766;53.490;10.174;2024-03-02T01:44:55;37.90;;;21.23;;
3503;SDS011;1766;53.490;10.174;2024-03-02T01:46:56;37.13;;;20.47;;
3503;SDS011;1766;53.490;10.174;2024-03-02T01:48:58;38.90;;;20.50;;
3503;SDS011;1766;53.490;10.174;2024-03-02T01:51:00;43.57;;;22.40;;
3503;SDS011;1766;53.490;10.174;2024-03-02T01:53:02;35.33;;;19.87;;
3503;SDS011;1766;53.490;10.174;2024-03-02T01:55:05;37.87;;;20.53;;
3503;SDS011;1766;53.490;10.174;2024-03-02T01:57:08;40.40;;;20.90;;
3503;SDS011;1766;53.490;10.174;2024-03-02T01:59:10;37.00;;;19.77;;
3503;SDS011;1766;53.490;10.174;2024-03-02T02:01:13;35.33;;;20.37;;
3503;SDS011;1766;53.490;10.174;2024-03-02T02:03:16;41.90;;;22.17;;
3503;SDS011;1766;53.490;10.174;2024-03-02T02:05:18;38.00;;;20.60;;
3503;SDS011;1766;53.490;10.174;2024-03-02T02:07:20;40.57;;;21.73;;
3503;SDS011;1766;53.490;10.174;2024-03-02T02:09:21;37.30;;;20.67;;
3503;SDS011;1766;53.490;10.174;2024-03-02T02:11:24;38.27;;;20.40;;
3503;SDS011;1766;53.490;10.174;2024-03-02T02:13:26;35.60;;;19.80;;
3503;SDS011;1766;53.490;10.174;2024-03-02T02:15:28;42.77;;;21.80;;
3503;SDS011;1766;53.490;10.174;2024-03-02T02:17:32;36.97;;;19.83;;
3503;SDS011;1766;53.490;10.174;2024-03-02T02:19:33;37.33;;;20.57;;
3503;SDS011;1766;53.490;10.174;2024-03-02T02:21:36;39.53;;;20.90;;
3503;SDS011;1766;53.490;10.174;2024-03-02T02:23:38;36.23;;;20.80;;
3503;SDS011;1766;53.490;10.174;2024-03-02T02:25:40;40.33;;;20.67;;
3503;SDS011;1766;53.490;10.174;2024-03-02T02:27:42;45.67;;;21.00;;
3503;SDS011;1766;53.490;10.174;2024-03-02T02:29:44;39.57;;;20.40;;
3503;SDS011;1766;53.490;10.174;2024-03-02T02:31:45;37.40;;;19.57;;
3503;SDS011;1766;53.490;10.174;2024-03-02T02:33:46;41.07;;;20.67;;
3503;SDS011;1766;53.490;10.174;2024-03-02T02:35:48;39.33;;;21.20;;
3503;SDS011;1766;53.490;10.174;2024-03-02T02:37:51;37.83;;;20.27;;
3503;SDS011;1766;53.490;10.174;2024-03-02T02:39:55;38.63;;;20.70;;
3503;SDS011;1766;53.490;10.174;2024-03-02T02:41:56;37.23;;;20.77;;
3503;SDS011;1766;53.490;10.174;2024-03-02T02:43:58;38.67;;;19.57;;
3503;SDS011;1766;53.490;10.174;2024-03-02T02:46:00;37.63;;;21.10;;
3503;SDS011;1766;53.490;10.174;2024-03-02T02:48:02;38.93;;;20.57;;
3503;SDS011;1766;53.490;10.174;2024-03-02T02:50:06;36.60;;;19.97;;
3503;SDS011;1766;53.490;10.174;2024-03-02T02:52:08;40.00;;;20.27;;
3503;SDS011;1766;53.490;10.174;2024-03-02T02:54:11;37.37;;;21.07;;
3503;SDS011;1766;53.490;10.174;2024-03-02T02:56:13;37.73;;;19.93;;
3503;SDS011;1766;53.490;10.174;2024-03-02T02:58:15;37.73;;;20.47;;
3503;SDS011;1766;53.490;10.174;2024-03-02T03:00:17;38.00;;;20.27;;
3503;SDS011;1766;53.490;10.174;2024-03-02T03:02:20;37.37;;;20.23;;
3503;SDS011;1766;53.490;10.174;2024-03-02T03:04:22;38.73;;;21.37;;
3503;SDS011;1766;53.490;10.174;2024-03-02T03:06:24;39.43;;;19.87;;
3503;SDS011;1766;53.490;10.174;2024-03-02T03:08:25;41.00;;;20.13;;
3503;SDS011;1766;53.490;10.174;2024-03-02T03:10:29;35.23;;;19.80;;
3503;SDS011;1766;53.490;10.174;2024-03-02T03:12:30;37.13;;;20.57;;
3503;SDS011;1766;53.490;10.174;2024-03-02T03:14:32;35.90;;;19.87;;
3503;SDS011;1766;53.490;10.174;2024-03-02T03:16:34;38.83;;;20.73;;
3503;SDS011;1766;53.490;10.174;2024-03-02T03:18:36;34.07;;;19.83;;
3503;SDS011;1766;53.490;10.174;2024-03-02T03:20:38;37.73;;;20.63;;
3503;SDS011;1766;53.490;10.174;2024-03-02T03:22:40;40.47;;;20.87;;
3503;SDS011;1766;53.490;10.174;2024-03-02T03:24:41;40.87;;;21.03;;
3503;SDS011;1766;53.490;10.174;2024-03-02T03:26:44;35.53;;;21.07;;
3503;SDS011;1766;53.490;10.174;2024-03-02T03:28:46;37.50;;;19.87;;
3503;SDS011;1766;53.490;10.174;2024-03-02T03:30:47;40.93;;;20.13;;
3503;SDS011;1766;53.490;10.174;2024-03-02T03:32:49;37.97;;;20.17;;
3503;SDS011;1766;53.490;10.174;2024-03-02T03:34:51;36.80;;;19.60;;
3503;SDS011;1766;53.490;10.174;2024-03-02T03:36:52;35.90;;;20.47;;
3503;SDS011;1766;53.490;10.174;2024-03-02T03:38:54;36.00;;;20.03;;
3503;SDS011;1766;53.490;10.174;2024-03-02T03:40:57;33.97;;;20.40;;
3503;SDS011;1766;53.490;10.174;2024-03-02T03:43:00;34.47;;;19.30;;
3503;SDS011;1766;53.490;10.174;2024-03-02T03:45:02;36.07;;;18.70;;
3503;SDS011;1766;53.490;10.174;2024-03-02T03:47:05;38.17;;;19.97;;
3503;SDS011;1766;53.490;10.174;2024-03-02T03:49:07;38.97;;;19.23;;
3503;SDS011;1766;53.490;10.174;2024-03-02T03:51:09;37.63;;;19.23;;
3503;SDS011;1766;53.490;10.174;2024-03-02T03:53:11;31.87;;;19.13;;
3503;SDS011;1766;53.490;10.174;2024-03-02T03:55:12;33.43;;;19.47;;
3503;SDS011;1766;53.490;10.174;2024-03-02T03:57:14;32.80;;;18.73;;
3503;SDS011;1766;53.490;10.174;2024-03-02T03:59:17;33.30;;;18.40;;
3503;SDS011;1766;53.490;10.174;2024-03-02T04:01:19;33.20;;;18.73;;
3503;SDS011;1766;53.490;10.174;2024-03-02T04:03:22;32.57;;;17.80;;
3503;SDS011;1766;53.490;10.174;2024-03-02T04:05:24;34.80;;;18.87;;
3503;SDS011;1766;53.490;10.174;2024-03-02T04:07:27;32.47;;;19.13;;
3503;SDS011;1766;53.490;10.174;2024-03-02T04:09:28;34.80;;;18.30;;
3503;SDS011;1766;53.490;10.174;2024-03-02T04:11:30;37.30;;;18.77;;
3503;SDS011;1766;53.490;10.174;2024-03-02T04:13:32;36.37;;;19.37;;
3503;SDS011;1766;53.490;10.174;2024-03-02T04:15:34;32.40;;;18.47;;
3503;SDS011;1766;53.490;10.174;2024-03-02T04:17:36;35.07;;;19.43;;
3503;SDS011;1766;53.490;10.174;2024-03-02T04:19:38;34.63;;;19.43;;
3503;SDS011;1766;53.490;10.174;2024-03-02T04:21:40;32.33;;;18.80;;
3503;SDS011;1766;53.490;10.174;2024-03-02T04:23:41;34.67;;;18.80;;
3503;SDS011;1766;53.490;10.174;2024-03-02T04:25:43;32.80;;;18.00;;
3503;SDS011;1766;53.490;10.174;2024-03-02T04:27:45;33.53;;;17.77;;
3503;SDS011;1766;53.490;10.174;2024-03-02T04:29:47;32.50;;;18.47;;
3503;SDS011;1766;53.490;10.174;2024-03-02T04:31:50;34.80;;;18.17;;
3503;SDS011;1766;53.490;10.174;2024-03-02T04:33:51;36.53;;;18.47;;
3503;SDS011;1766;53.490;10.174;2024-03-02T04:35:54;30.87;;;16.93;;
3503;SDS011;1766;53.490;10.174;2024-03-02T04:37:56;33.57;;;18.20;;
3503;SDS011;1766;53.490;10.174;2024-03-02T04:39:57;34.33;;;19.10;;
3503;SDS011;1766;53.490;10.174;2024-03-02T04:41:59;34.27;;;18.70;;
3503;SDS011;1766;53.490;10.174;2024-03-02T04:44:00;32.73;;;18.63;;
3503;SDS011;1766;53.490;10.174;2024-03-02T04:46:02;33.30;;;17.90;;
3503;SDS011;1766;53.490;10.174;2024-03-02T04:48:08;37.23;;;19.67;;
3503;SDS011;1766;53.490;10.174;2024-03-02T04:50:10;37.57;;;19.23;;
3503;SDS011;1766;53.490;10.174;2024-03-02T04:52:11;32.87;;;18.37;;
3503;SDS011;1766;53.490;10.174;2024-03-02T04:54:12;31.23;;;17.27;;
3503;SDS011;1766;53.490;10.174;2024-03-02T04:56:15;30.97;;;17.07;;
3503;SDS011;1766;53.490;10.174;2024-03-02T04:58:31;32.77;;;18.97;;
3503;SDS011;1766;53.490;10.174;2024-03-02T05:00:32;29.07;;;16.67;;
3503;SDS011;1766;53.490;10.174;2024-03-02T05:02:35;29.93;;;17.53;;
3503;SDS011;1766;53.490;10.174;2024-03-02T05:04:38;30.97;;;18.60;;
3503;SDS011;1766;53.490;10.174;2024-03-02T05:06:41;28.27;;;16.83;;
3503;SDS011;1766;53.490;10.174;2024-03-02T05:08:43;31.33;;;18.57;;
3503;SDS011;1766;53.490;10.174;2024-03-02T05:10:44;35.97;;;18.10;;
3503;SDS011;1766;53.490;10.174;2024-03-02T05:12:46;33.40;;;17.63;;
3503;SDS011;1766;53.490;10.174;2024-03-02T05:14:56;33.00;;;17.63;;
3503;SDS011;1766;53.490;10.174;2024-03-02T05:16:58;34.57;;;18.50;;
3503;SDS011;1766;53.490;10.174;2024-03-02T05:19:00;30.30;;;16.97;;
3503;SDS011;1766;53.490;10.174;2024-03-02T05:21:05;30.30;;;17.57;;
3503;SDS011;1766;53.490;10.174;2024-03-02T05:23:06;32.03;;;17.53;;
3503;SDS011;1766;53.490;10.174;2024-03-02T05:25:08;30.60;;;17.53;;
3503;SDS011;1766;53.490;10.174;2024-03-02T05:27:09;30.63;;;17.30;;
3503;SDS011;1766;53.490;10.174;2024-03-02T05:29:11;31.80;;;18.03;;
3503;SDS011;1766;53.490;10.174;2024-03-02T05:31:13;31.07;;;16.50;;
3503;SDS011;1766;53.490;10.174;2024-03-02T05:33:17;32.37;;;16.63;;
3503;SDS011;1766;53.490;10.174;2024-03-02T05:35:19;28.93;;;16.77;;
3503;SDS011;1766;53.490;10.174;2024-03-02T05:37:22;32.10;;;17.90;;
3503;SDS011;1766;53.490;10.174;2024-03-02T05:39:23;31.63;;;17.13;;
3503;SDS011;1766;53.490;10.174;2024-03-02T05:41:25;31.43;;;17.47;;
3503;SDS011;1766;53.490;10.174;2024-03-02T05:43:26;31.67;;;18.87;;
3503;SDS011;1766;53.490;10.174;2024-03-02T05:45:28;28.37;;;17.03;;
3503;SDS011;1766;53.490;10.174;2024-03-02T05:47:30;32.33;;;18.60;;
3503;SDS011;1766;53.490;10.174;2024-03-02T05:49:33;30.00;;;17.60;;
3503;SDS011;1766;53.490;10.174;2024-03-02T05:51:35;32.53;;;17.93;;
3503;SDS011;1766;53.490;10.174;2024-03-02T05:53:38;32.67;;;17.20;;
3503;SDS011;1766;53.490;10.174;2024-03-02T05:55:40;28.80;;;16.70;;
3503;SDS011;1766;53.490;10.174;2024-03-02T05:57:41;33.27;;;18.30;;
3503;SDS011;1766;53.490;10.174;2024-03-02T05:59:59;37.73;;;18.87;;
3503;SDS011;1766;53.490;10.174;2024-03-02T06:02:01;31.40;;;17.67;;
3503;SDS011;1766;53.490;10.174;2024-03-02T06:04:02;33.70;;;16.97;;
3503;SDS011;1766;53.490;10.174;2024-03-02T06:06:05;33.73;;;18.40;;
3503;SDS011;1766;53.490;10.174;2024-03-02T06:08:06;32.37;;;17.37;;
3503;SDS011;1766;53.490;10.174;2024-03-02T06:10:10;30.97;;;18.20;;
3503;SDS011;1766;53.490;10.174;2024-03-02T06:12:12;28.13;;;16.97;;
3503;SDS011;1766;53.490;10.174;2024-03-02T06:14:14;29.77;;;16.97;;
3503;SDS011;1766;53.490;10.174;2024-03-02T06:16:15;32.30;;;17.20;;
3503;SDS011;1766;53.490;10.174;2024-03-02T06:18:17;30.03;;;16.43;;
3503;SDS011;1766;53.490;10.174;2024-03-02T06:20:19;30.73;;;18.13;;
3503;SDS011;1766;53.490;10.174;2024-03-02T06:22:20;32.90;;;17.23;;
3503;SDS011;1766;53.490;10.174;2024-03-02T06:24:24;29.63;;;16.87;;
3503;SDS011;1766;53.490;10.174;2024-03-02T06:26:28;30.40;;;17.47;;
3503;SDS011;1766;53.490;10.174;2024-03-02T06:28:31;29.60;;;18.23;;
3503;SDS011;1766;53.490;10.174;2024-03-02T06:30:33;33.37;;;18.50;;
3503;SDS011;1766;53.490;10.174;2024-03-02T06:32:35;31.03;;;17.37;;
3503;SDS011;1766;53.490;10.174;2024-03-02T06:34:36;32.17;;;17.77;;
3503;SDS011;1766;53.490;10.174;2024-03-02T06:36:38;33.83;;;18.10;;
3503;SDS011;1766;53.490;10.174;2024-03-02T06:38:42;30.37;;;17.33;;
3503;SDS011;1766;53.490;10.174;2024-03-02T06:40:44;29.67;;;17.00;;
3503;SDS011;1766;53.490;10.174;2024-03-02T06:42:47;29.27;;;16.97;;
3503;SDS011;1766;53.490;10.174;2024-03-02T06:44:48;29.83;;;15.93;;
3503;SDS011;1766;53.490;10.174;2024-03-02T06:46:50;27.57;;;16.97;;
3503;SDS011;1766;53.490;10.174;2024-03-02T06:48:52;21.07;;;13.20;;
3503;SDS011;1766;53.490;10.174;2024-03-02T06:50:53;30.27;;;16.30;;
3503;SDS011;1766;53.490;10.174;2024-03-02T06:52:56;27.43;;;16.10;;
3503;SDS011;1766;53.490;10.174;2024-03-02T06:54:58;29.27;;;16.60;;
3503;SDS011;1766;53.490;10.174;2024-03-02T06:56:59;26.93;;;15.73;;
3503;SDS011;1766;53.490;10.174;2024-03-02T06:59:03;29.20;;;16.03;;
3503;SDS011;1766;53.490;10.174;2024-03-02T07:01:04;26.77;;;15.03;;
3503;SDS011;1766;53.490;10.174;2024-03-02T07:03:06;21.53;;;14.03;;
3503;SDS011;1766;53.490;10.174;2024-03-02T07:05:09;22.17;;;13.60;;
3503;SDS011;1766;53.490;10.174;2024-03-02T07:07:11;23.50;;;14.80;;
3503;SDS011;1766;53.490;10.174;2024-03-02T07:09:12;26.83;;;15.30;;
3503;SDS011;1766;53.490;10.174;2024-03-02T07:11:14;27.20;;;18.57;;
3503;SDS011;1766;53.490;10.174;2024-03-02T07:13:16;27.53;;;14.60;;
3503;SDS011;1766;53.490;10.174;2024-03-02T07:15:19;29.90;;;17.00;;
3503;SDS011;1766;53.490;10.174;2024-03-02T07:17:37;30.53;;;17.47;;
3503;SDS011;1766;53.490;10.174;2024-03-02T07:19:39;31.37;;;17.90;;
3503;SDS011;1766;53.490;10.174;2024-03-02T07:21:41;31.47;;;16.77;;
3503;SDS011;1766;53.490;10.174;2024-03-02T07:23:43;27.70;;;16.80;;
3503;SDS011;1766;53.490;10.174;2024-03-02T07:25:43;27.40;;;15.70;;
3503;SDS011;1766;53.490;10.174;2024-03-02T07:27:45;29.70;;;16.07;;
3503;SDS011;1766;53.490;10.174;2024-03-02T07:29:47;26.43;;;15.53;;
3503;SDS011;1766;53.490;10.174;2024-03-02T07:31:50;25.83;;;15.87;;
3503;SDS011;1766;53.490;10.174;2024-03-02T07:33:51;22.93;;;14.50;;
3503;SDS011;1766;53.490;10.174;2024-03-02T07:35:53;23.73;;;15.40;;
3503;SDS011;1766;53.490;10.174;2024-03-02T07:37:55;26.23;;;15.77;;
3503;SDS011;1766;53.490;10.174;2024-03-02T07:39:57;87.07;;;48.83;;
3503;SDS011;1766;53.490;10.174;2024-03-02T07:41:59;26.63;;;16.73;;
3503;SDS011;1766;53.490;10.174;2024-03-02T07:44:01;27.33;;;15.37;;
3503;SDS011;1766;53.490;10.174;2024-03-02T07:46:04;26.77;;;15.57;;
3503;SDS011;1766;53.490;10.174;2024-03-02T07:48:07;23.77;;;14.97;;
3503;SDS011;1766;53.490;10.174;2024-03-02T07:50:09;27.37;;;16.07;;
3503;SDS011;1766;53.490;10.174;2024-03-02T07:52:11;25.50;;;14.77;;
3503;SDS011;1766;53.490;10.174;2024-03-02T07:54:13;24.00;;;14.57;;
3503;SDS011;1766;53.490;10.174;2024-03-02T07:56:15;22.80;;;13.93;;
3503;SDS011;1766;53.490;10.174;2024-03-02T07:58:22;25.33;;;14.57;;
3503;SDS011;1766;53.490;10.174;2024-03-02T08:00:24;25.33;;;14.77;;
3503;SDS011;1766;53.490;10.174;2024-03-02T08:02:27;23.87;;;14.27;;
3503;SDS011;1766;53.490;10.174;2024-03-02T08:04:30;26.50;;;13.93;;
3503;SDS011;1766;53.490;10.174;2024-03-02T08:06:31;28.33;;;14.40;;
3503;SDS011;1766;53.490;10.174;2024-03-02T08:08:33;23.57;;;14.40;;
3503;SDS011;1766;53.490;10.174;2024-03-02T08:10:35;22.47;;;13.90;;
3503;SDS011;1766;53.490;10.174;2024-03-02T08:12:37;25.60;;;14.97;;
3503;SDS011;1766;53.490;10.174;2024-03-02T08:14:39;21.80;;;13.83;;
3503;SDS011;1766;53.490;10.174;2024-03-02T08:16:41;24.33;;;13.93;;
3503;SDS011;1766;53.490;10.174;2024-03-02T08:18:43;24.37;;;15.30;;
3503;SDS011;1766;53.490;10.174;2024-03-02T08:20:46;80.03;;;46.33;;
3503;SDS011;1766;53.490;10.174;2024-03-02T08:22:48;32.10;;;14.07;;
3503;SDS011;1766;53.490;10.174;2024-03-02T08:24:50;23.60;;;14.17;;
3503;SDS011;1766;53.490;10.174;2024-03-02T08:26:52;22.60;;;13.03;;
3503;SDS011;1766;53.490;10.174;2024-03-02T08:28:55;23.87;;;13.80;;
3503;SDS011;1766;53.490;10.174;2024-03-02T08:30:57;23.43;;;13.60;;
3503;SDS011;1766;53.490;10.174;2024-03-02T08:32:59;28.90;;;14.67;;
3503;SDS011;1766;53.490;10.174;2024-03-02T08:35:00;23.30;;;13.70;;
3503;SDS011;1766;53.490;10.174;2024-03-02T08:37:03;21.43;;;13.67;;
3503;SDS011;1766;53.490;10.174;2024-03-02T08:39:05;23.13;;;13.77;;
3503;SDS011;1766;53.490;10.174;2024-03-02T08:41:15;22.60;;;13.30;;
3503;SDS011;1766;53.490;10.174;2024-03-02T08:43:17;22.57;;;11.80;;
3503;SDS011;1766;53.490;10.174;2024-03-02T08:45:18;24.47;;;14.67;;
3503;SDS011;1766;53.490;10.174;2024-03-02T08:47:21;26.80;;;15.20;;
3503;SDS011;1766;53.490;10.174;2024-03-02T08:49:23;24.93;;;13.83;;
3503;SDS011;1766;53.490;10.174;2024-03-02T08:51:25;22.83;;;13.90;;
3503;SDS011;1766;53.490;10.174;2024-03-02T08:53:28;25.07;;;14.23;;
3503;SDS011;1766;53.490;10.174;2024-03-02T08:55:30;25.10;;;13.67;;
3503;SDS011;1766;53.490;10.174;2024-03-02T08:57:32;23.23;;;13.67;;
3503;SDS011;1766;53.490;10.174;2024-03-02T08:59:33;24.57;;;14.63;;
3503;SDS011;1766;53.490;10.174;2024-03-02T09:01:35;23.17;;;14.40;;
3503;SDS011;1766;53.490;10.174;2024-03-02T09:03:41;29.83;;;16.93;;
3503;SDS011;1766;53.490;10.174;2024-03-02T09:05:44;37.63;;;20.67;;
3503;SDS011;1766;53.490;10.174;2024-03-02T09:07:45;23.70;;;14.43;;
3503;SDS011;1766;53.490;10.174;2024-03-02T09:09:48;24.20;;;13.37;;
3503;SDS011;1766;53.490;10.174;2024-03-02T09:11:50;21.30;;;14.10;;
3503;SDS011;1766;53.490;10.174;2024-03-02T09:13:54;26.53;;;15.07;;
3503;SDS011;1766;53.490;10.174;2024-03-02T09:15:57;27.50;;;15.27;;
3503;SDS011;1766;53.490;10.174;2024-03-02T09:17:59;22.87;;;14.57;;
3503;SDS011;1766;53.490;10.174;2024-03-02T09:20:01;25.73;;;13.63;;
3503;SDS011;1766;53.490;10.174;2024-03-02T09:22:04;24.67;;;14.70;;
3503;SDS011;1766;53.490;10.174;2024-03-02T09:24:06;24.30;;;14.47;;
3503;SDS011;1766;53.490;10.174;2024-03-02T09:26:09;22.80;;;14.00;;
3503;SDS011;1766;53.490;10.174;2024-03-02T09:28:10;24.17;;;14.70;;
3503;SDS011;1766;53.490;10.174;2024-03-02T09:30:12;22.87;;;13.90;;
3503;SDS011;1766;53.490;10.174;2024-03-02T09:32:15;22.97;;;13.87;;
3503;SDS011;1766;53.490;10.174;2024-03-02T09:34:17;20.50;;;13.57;;
3503;SDS011;1766;53.490;10.174;2024-03-02T09:36:19;26.03;;;14.27;;
3503;SDS011;1766;53.490;10.174;2024-03-02T09:38:23;25.03;;;14.23;;
3503;SDS011;1766;53.490;10.174;2024-03-02T09:40:25;23.03;;;13.90;;
3503;SDS011;1766;53.490;10.174;2024-03-02T09:42:28;24.57;;;14.33;;
3503;SDS011;1766;53.490;10.174;2024-03-02T09:44:32;21.90;;;13.60;;
3503;SDS011;1766;53.490;10.174;2024-03-02T09:46:34;22.37;;;13.97;;
3503;SDS011;1766;53.490;10.174;2024-03-02T09:48:37;24.77;;;13.17;;
3503;SDS011;1766;53.490;10.174;2024-03-02T09:50:38;21.20;;;13.23;;
3503;SDS011;1766;53.490;10.174;2024-03-02T09:52:41;22.70;;;13.87;;
3503;SDS011;1766;53.490;10.174;2024-03-02T09:54:44;18.37;;;12.57;;
3503;SDS011;1766;53.490;10.174;2024-03-02T09:56:48;25.10;;;12.90;;
3503;SDS011;1766;53.490;10.174;2024-03-02T09:58:53;21.17;;;12.13;;
3503;SDS011;1766;53.490;10.174;2024-03-02T10:00:55;21.00;;;13.30;;
3503;SDS011;1766;53.490;10.174;2024-03-02T10:02:57;20.07;;;12.90;;
3503;SDS011;1766;53.490;10.174;2024-03-02T10:05:00;22.07;;;13.43;;
3503;SDS011;1766;53.490;10.174;2024-03-02T10:07:12;20.27;;;12.93;;
3503;SDS011;1766;53.490;10.174;2024-03-02T10:09:18;20.57;;;12.80;;
3503;SDS011;1766;53.490;10.174;2024-03-02T10:11:29;17.27;;;11.73;;
3503;SDS011;1766;53.490;10.174;2024-03-02T10:13:33;19.07;;;12.13;;
3503;SDS011;1766;53.490;10.174;2024-03-02T10:15:37;19.53;;;12.33;;
3503;SDS011;1766;53.490;10.174;2024-03-02T10:17:41;19.77;;;11.50;;
3503;SDS011;1766;53.490;10.174;2024-03-02T10:19:43;21.40;;;12.70;;
3503;SDS011;1766;53.490;10.174;2024-03-02T10:21:45;15.63;;;10.23;;
3503;SDS011;1766;53.490;10.174;2024-03-02T10:23:47;16.93;;;10.83;;
3503;SDS011;1766;53.490;10.174;2024-03-02T10:25:49;15.90;;;10.33;;
3503;SDS011;1766;53.490;10.174;2024-03-02T10:27:51;14.07;;;10.47;;
3503;SDS011;1766;53.490;10.174;2024-03-02T10:29:53;16.73;;;11.10;;
3503;SDS011;1766;53.490;10.174;2024-03-02T10:31:56;18.57;;;11.67;;
3503;SDS011;1766;53.490;10.174;2024-03-02T10:33:59;15.50;;;10.87;;
3503;SDS011;1766;53.490;10.174;2024-03-02T10:36:02;18.37;;;12.23;;
3503;SDS011;1766;53.490;10.174;2024-03-02T10:38:04;20.23;;;10.40;;
3503;SDS011;1766;53.490;10.174;2024-03-02T10:40:06;16.23;;;11.43;;
3503;SDS011;1766;53.490;10.174;2024-03-02T10:42:11;15.97;;;10.60;;
3503;SDS011;1766;53.490;10.174;2024-03-02T10:44:15;16.00;;;10.33;;
3503;SDS011;1766;53.490;10.174;2024-03-02T10:46:18;16.67;;;10.13;;
3503;SDS011;1766;53.490;10.174;2024-03-02T10:48:22;18.47;;;10.93;;
3503;SDS011;1766;53.490;10.174;2024-03-02T10:50:26;16.83;;;10.83;;
3503;SDS011;1766;53.490;10.174;2024-03-02T10:52:28;17.27;;;11.37;;
3503;SDS011;1766;53.490;10.174;2024-03-02T10:54:29;16.60;;;9.90;;
3503;SDS011;1766;53.490;10.174;2024-03-02T10:56:38;16.50;;;10.77;;
3503;SDS011;1766;53.490;10.174;2024-03-02T10:58:40;16.23;;;10.63;;
3503;SDS011;1766;53.490;10.174;2024-03-02T11:00:43;17.03;;;10.60;;
3503;SDS011;1766;53.490;10.174;2024-03-02T11:02:49;15.10;;;9.87;;
3503;SDS011;1766;53.490;10.174;2024-03-02T11:04:54;15.13;;;10.03;;
3503;SDS011;1766;53.490;10.174;2024-03-02T11:06:59;18.43;;;12.43;;
3503;SDS011;1766;53.490;10.174;2024-03-02T11:09:09;17.30;;;11.63;;
3503;SDS011;1766;53.490;10.174;2024-03-02T11:11:14;14.70;;;9.73;;
3503;SDS011;1766;53.490;10.174;2024-03-02T11:13:22;15.60;;;9.60;;
3503;SDS011;1766;53.490;10.174;2024-03-02T11:15:26;15.83;;;9.93;;
3503;SDS011;1766;53.490;10.174;2024-03-02T11:17:29;16.03;;;9.20;;
3503;SDS011;1766;53.490;10.174;2024-03-02T11:19:31;13.33;;;9.27;;
3503;SDS011;1766;53.490;10.174;2024-03-02T11:21:36;13.77;;;9.40;;
3503;SDS011;1766;53.490;10.174;2024-03-02T11:23:39;12.57;;;9.33;;
3503;SDS011;1766;53.490;10.174;2024-03-02T11:25:41;13.23;;;9.43;;
3503;SDS011;1766;53.490;10.174;2024-03-02T11:30:02;12.90;;;7.87;;
3503;SDS011;1766;53.490;10.174;2024-03-02T11:32:06;11.97;;;8.83;;
3503;SDS011;1766;53.490;10.174;2024-03-02T11:34:17;13.90;;;8.07;;
3503;SDS011;1766;53.490;10.174;2024-03-02T11:36:30;15.00;;;9.00;;
3503;SDS011;1766;53.490;10.174;2024-03-02T11:38:34;14.57;;;8.77;;
3503;SDS011;1766;53.490;10.174;2024-03-02T11:40:36;11.80;;;8.50;;
3503;SDS011;1766;53.490;10.174;2024-03-02T11:42:40;13.17;;;8.97;;
3503;SDS011;1766;53.490;10.174;2024-03-02T11:44:43;13.63;;;8.73;;
3503;SDS011;1766;53.490;10.174;2024-03-02T11:46:51;13.00;;;8.57;;
3503;SDS011;1766;53.490;10.174;2024-03-02T11:48:53;13.00;;;8.07;;
3503;SDS011;1766;53.490;10.174;2024-03-02T11:50:57;12.90;;;8.43;;
3503;SDS011;1766;53.490;10.174;2024-03-02T11:53:00;11.57;;;8.50;;
3503;SDS011;1766;53.490;10.174;2024-03-02T11:55:04;13.70;;;8.77;;
3503;SDS011;1766;53.490;10.174;2024-03-02T11:57:09;14.77;;;9.57;;
3503;SDS011;1766;53.490;10.174;2024-03-02T11:59:11;14.17;;;9.10;;
3503;SDS011;1766;53.490;10.174;2024-03-02T12:01:13;13.40;;;9.00;;
3503;SDS011;1766;53.490;10.174;2024-03-02T12:03:15;11.87;;;8.57;;
3503;SDS011;1766;53.490;10.174;2024-03-02T12:05:17;12.17;;;8.00;;
3503;SDS011;1766;53.490;10.174;2024-03-02T12:07:21;11.67;;;8.17;;
3503;SDS011;1766;53.490;10.174;2024-03-02T12:09:24;13.60;;;8.60;;
3503;SDS011;1766;53.490;10.174;2024-03-02T12:11:27;12.00;;;8.13;;